sensor_id;sensor_type;location;lat;lon;timestamp;temperature;humidity
2723;DHT22;1369;53.216;10.396;2023-06-14T00:02:13;16.90;99.90
2723;DHT22;1369;53.216;10.396;2023-06-14T00:04:39;16.80;99.90
2723;DHT22;1369;53.216;10.396;2023-06-14T00:07:07;16.80;99.90
2723;DHT22;1369;53.216;10.396;2023-06-14T00:09:35;16.70;99.90
2723;DHT22;1369;53.216;10.396;2023-06-14T00:12:00;16.70;99.90
2723;DHT22;1369;53.216;10.396;2023-06-14T00:14:26;16.70;99.90
2723;DHT22;1369;53.216;10.396;2023-06-14T00:16:51;16.60;99.90
2723;DHT22;1369;53.216;10.396;2023-06-14T00:19:24;16.50;99.90
2723;DHT22;1369;53.216;10.396;2023-06-14T00:21:49;16.40;99.90
2723;DHT22;1369;53.216;10.396;2023-06-14T00:24:17;16.30;99.90
2723;DHT22;1369;53.216;10.396;2023-06-14T00:26:42;16.20;99.90
2723;DHT22;1369;53.216;10.396;2023-06-14T00:29:08;16.10;99.90
2723;DHT22;1369;53.216;10.396;2023-06-14T00:31:33;16.10;99.90
2723;DHT22;1369;53.216;10.396;2023-06-14T00:33:59;15.90;99.90
2723;DHT22;1369;53.216;10.396;2023-06-14T00:36:25;15.80;99.90
2723;DHT22;1369;53.216;10.396;2023-06-14T00:38:51;15.80;99.90
2723;DHT22;1369;53.216;10.396;2023-06-14T00:41:16;15.80;99.90
2723;DHT22;1369;53.216;10.396;2023-06-14T00:43:42;15.60;99.90
2723;DHT22;1369;53.216;10.396;2023-06-14T00:46:07;15.60;99.90
2723;DHT22;1369;53.216;10.396;2023-06-14T00:48:33;15.50;99.90
2723;DHT22;1369;53.216;10.396;2023-06-14T00:51:00;15.50;99.90
2723;DHT22;1369;53.216;10.396;2023-06-14T00:53:29;15.30;99.90
2723;DHT22;1369;53.216;10.396;2023-06-14T00:55:56;15.30;99.90
2723;DHT22;1369;53.216;10.396;2023-06-14T00:58:22;15.20;99.90
2723;DHT22;1369;53.216;10.396;2023-06-14T01:00:48;15.00;99.90
2723;DHT22;1369;53.216;10.396;2023-06-14T01:03:14;15.00;99.90
2723;DHT22;1369;53.216;10.396;2023-06-14T01:05:44;15.00;99.90
2723;DHT22;1369;53.216;10.396;2023-06-14T01:08:20;14.80;99.90
2723;DHT22;1369;53.216;10.396;2023-06-14T01:11:09;14.80;99.90
2723;DHT22;1369;53.216;10.396;2023-06-14T01:13:39;14.70;99.90
2723;DHT22;1369;53.216;10.396;2023-06-14T01:16:06;14.70;99.90
2723;DHT22;1369;53.216;10.396;2023-06-14T01:18:33;14.60;99.90
2723;DHT22;1369;53.216;10.396;2023-06-14T01:21:00;14.60;99.90
2723;DHT22;1369;53.216;10.396;2023-06-14T01:23:28;14.50;99.90
2723;DHT22;1369;53.216;10.396;2023-06-14T01:25:57;14.50;99.90
2723;DHT22;1369;53.216;10.396;2023-06-14T01:28:23;14.40;99.90
2723;DHT22;1369;53.216;10.396;2023-06-14T01:30:54;14.30;99.90
2723;DHT22;1369;53.216;10.396;2023-06-14T01:33:24;14.30;99.90
2723;DHT22;1369;53.216;10.396;2023-06-14T01:35:52;14.30;99.90
2723;DHT22;1369;53.216;10.396;2023-06-14T01:38:21;14.20;99.90
2723;DHT22;1369;53.216;10.396;2023-06-14T01:40:48;14.10;99.90
2723;DHT22;1369;53.216;10.396;2023-06-14T01:43:13;14.10;99.90
2723;DHT22;1369;53.216;10.396;2023-06-14T01:45:41;14.10;99.90
2723;DHT22;1369;53.216;10.396;2023-06-14T01:48:07;14.00;99.90
2723;DHT22;1369;53.216;10.396;2023-06-14T01:50:32;14.00;99.90
2723;DHT22;1369;53.216;10.396;2023-06-14T01:52:59;13.90;99.90
2723;DHT22;1369;53.216;10.396;2023-06-14T01:55:24;13.80;99.90
2723;DHT22;1369;53.216;10.396;2023-06-14T01:57:53;13.80;99.90
2723;DHT22;1369;53.216;10.396;2023-06-14T02:00:20;13.70;99.90
2723;DHT22;1369;53.216;10.396;2023-06-14T02:02:46;13.70;99.90
2723;DHT22;1369;53.216;10.396;2023-06-14T02:05:12;13.70;99.90
2723;DHT22;1369;53.216;10.396;2023-06-14T02:07:37;13.60;99.90
2723;DHT22;1369;53.216;10.396;2023-06-14T02:10:04;13.60;99.90
2723;DHT22;1369;53.216;10.396;2023-06-14T02:12:30;13.60;99.90
2723;DHT22;1369;53.216;10.396;2023-06-14T02:14:55;13.50;99.90
2723;DHT22;1369;53.216;10.396;2023-06-14T02:17:22;13.50;99.90
2723;DHT22;1369;53.216;10.396;2023-06-14T02:19:47;13.30;99.90
2723;DHT22;1369;53.216;10.396;2023-06-14T02:22:13;13.40;99.90
2723;DHT22;1369;53.216;10.396;2023-06-14T02:24:40;13.40;99.90
2723;DHT22;1369;53.216;10.396;2023-06-14T02:27:06;13.40;99.90
2723;DHT22;1369;53.216;10.396;2023-06-14T02:29:32;13.30;99.90
2723;DHT22;1369;53.216;10.396;2023-06-14T02:31:57;13.40;99.90
2723;DHT22;1369;53.216;10.396;2023-06-14T02:34:23;13.30;99.90
2723;DHT22;1369;53.216;10.396;2023-06-14T02:36:48;13.20;99.90
2723;DHT22;1369;53.216;10.396;2023-06-14T02:39:14;13.20;99.90
2723;DHT22;1369;53.216;10.396;2023-06-14T02:41:39;13.10;99.90
2723;DHT22;1369;53.216;10.396;2023-06-14T02:44:05;13.10;99.90
2723;DHT22;1369;53.216;10.396;2023-06-14T02:46:34;13.10;99.90
2723;DHT22;1369;53.216;10.396;2023-06-14T02:49:00;13.10;99.90
2723;DHT22;1369;53.216;10.396;2023-06-14T02:51:25;13.00;99.90
2723;DHT22;1369;53.216;10.396;2023-06-14T02:53:54;12.90;99.90
2723;DHT22;1369;53.216;10.396;2023-06-14T02:56:19;12.90;99.90
2723;DHT22;1369;53.216;10.396;2023-06-14T02:58:45;12.90;99.90
2723;DHT22;1369;53.216;10.396;2023-06-14T03:01:11;12.90;99.90
2723;DHT22;1369;53.216;10.396;2023-06-14T03:03:38;12.80;99.90
2723;DHT22;1369;53.216;10.396;2023-06-14T03:06:03;12.90;99.90
2723;DHT22;1369;53.216;10.396;2023-06-14T03:08:30;13.10;99.90
2723;DHT22;1369;53.216;10.396;2023-06-14T03:10:57;13.10;99.90
2723;DHT22;1369;53.216;10.396;2023-06-14T03:13:22;13.00;99.90
2723;DHT22;1369;53.216;10.396;2023-06-14T03:15:48;13.10;99.90
2723;DHT22;1369;53.216;10.396;2023-06-14T03:18:16;13.20;99.90
2723;DHT22;1369;53.216;10.396;2023-06-14T03:20:42;13.10;99.90
2723;DHT22;1369;53.216;10.396;2023-06-14T03:23:08;13.10;99.90
2723;DHT22;1369;53.216;10.396;2023-06-14T03:25:34;13.20;99.90
2723;DHT22;1369;53.216;10.396;2023-06-14T03:28:04;13.20;99.90
2723;DHT22;1369;53.216;10.396;2023-06-14T03:30:30;13.20;99.90
2723;DHT22;1369;53.216;10.396;2023-06-14T03:32:56;13.30;99.90
2723;DHT22;1369;53.216;10.396;2023-06-14T03:35:23;13.20;99.90
2723;DHT22;1369;53.216;10.396;2023-06-14T03:37:49;13.30;99.90
2723;DHT22;1369;53.216;10.396;2023-06-14T03:40:17;13.30;99.90
2723;DHT22;1369;53.216;10.396;2023-06-14T03:42:43;13.40;99.90
2723;DHT22;1369;53.216;10.396;2023-06-14T03:45:09;13.40;99.90
2723;DHT22;1369;53.216;10.396;2023-06-14T03:47:35;13.40;99.90
2723;DHT22;1369;53.216;10.396;2023-06-14T03:50:01;13.50;99.90
2723;DHT22;1369;53.216;10.396;2023-06-14T03:52:27;13.50;99.90
2723;DHT22;1369;53.216;10.396;2023-06-14T03:54:53;13.50;99.90
2723;DHT22;1369;53.216;10.396;2023-06-14T03:57:19;13.60;99.90
2723;DHT22;1369;53.216;10.396;2023-06-14T03:59:45;13.70;99.90
2723;DHT22;1369;53.216;10.396;2023-06-14T04:02:11;13.70;99.90
2723;DHT22;1369;53.216;10.396;2023-06-14T04:04:37;13.60;99.90
2723;DHT22;1369;53.216;10.396;2023-06-14T04:07:03;13.70;99.90
2723;DHT22;1369;53.216;10.396;2023-06-14T04:09:29;13.80;99.90
2723;DHT22;1369;53.216;10.396;2023-06-14T04:11:55;13.70;99.90
2723;DHT22;1369;53.216;10.396;2023-06-14T04:14:21;13.80;99.90
2723;DHT22;1369;53.216;10.396;2023-06-14T04:16:47;13.90;99.90
2723;DHT22;1369;53.216;10.396;2023-06-14T04:19:14;13.90;99.90
2723;DHT22;1369;53.216;10.396;2023-06-14T04:21:39;13.80;99.90
2723;DHT22;1369;53.216;10.396;2023-06-14T04:24:05;13.80;99.90
2723;DHT22;1369;53.216;10.396;2023-06-14T04:26:32;13.80;99.90
2723;DHT22;1369;53.216;10.396;2023-06-14T04:29:01;13.80;99.90
2723;DHT22;1369;53.216;10.396;2023-06-14T04:31:28;13.90;99.90
2723;DHT22;1369;53.216;10.396;2023-06-14T04:33:55;13.80;99.90
2723;DHT22;1369;53.216;10.396;2023-06-14T04:36:21;13.90;99.90
2723;DHT22;1369;53.216;10.396;2023-06-14T04:38:46;14.00;99.90
2723;DHT22;1369;53.216;10.396;2023-06-14T04:41:12;14.10;99.90
2723;DHT22;1369;53.216;10.396;2023-06-14T04:43:38;14.20;99.90
2723;DHT22;1369;53.216;10.396;2023-06-14T04:46:05;14.20;99.90
2723;DHT22;1369;53.216;10.396;2023-06-14T04:48:37;14.30;99.90
2723;DHT22;1369;53.216;10.396;2023-06-14T04:51:03;14.30;99.90
2723;DHT22;1369;53.216;10.396;2023-06-14T04:53:29;14.40;99.90
2723;DHT22;1369;53.216;10.396;2023-06-14T04:55:54;14.50;99.90
2723;DHT22;1369;53.216;10.396;2023-06-14T04:58:20;14.60;99.90
2723;DHT22;1369;53.216;10.396;2023-06-14T05:00:45;14.70;99.90
2723;DHT22;1369;53.216;10.396;2023-06-14T05:03:11;14.80;99.90
2723;DHT22;1369;53.216;10.396;2023-06-14T05:05:39;14.90;99.90
2723;DHT22;1369;53.216;10.396;2023-06-14T05:08:05;15.00;99.90
2723;DHT22;1369;53.216;10.396;2023-06-14T05:10:31;15.00;99.90
2723;DHT22;1369;53.216;10.396;2023-06-14T05:12:56;15.10;99.90
2723;DHT22;1369;53.216;10.396;2023-06-14T05:15:22;15.20;99.90
2723;DHT22;1369;53.216;10.396;2023-06-14T05:17:51;15.20;99.90
2723;DHT22;1369;53.216;10.396;2023-06-14T05:20:21;15.30;99.90
2723;DHT22;1369;53.216;10.396;2023-06-14T05:22:48;15.40;99.90
2723;DHT22;1369;53.216;10.396;2023-06-14T05:25:15;15.50;99.90
2723;DHT22;1369;53.216;10.396;2023-06-14T05:27:40;15.50;99.90
2723;DHT22;1369;53.216;10.396;2023-06-14T05:30:07;15.60;99.90
2723;DHT22;1369;53.216;10.396;2023-06-14T05:32:33;15.60;99.90
2723;DHT22;1369;53.216;10.396;2023-06-14T05:34:59;15.70;99.90
2723;DHT22;1369;53.216;10.396;2023-06-14T05:37:27;15.70;99.90
2723;DHT22;1369;53.216;10.396;2023-06-14T05:39:52;15.80;99.90
2723;DHT22;1369;53.216;10.396;2023-06-14T05:42:18;15.90;99.90
2723;DHT22;1369;53.216;10.396;2023-06-14T05:44:43;15.90;99.90
2723;DHT22;1369;53.216;10.396;2023-06-14T05:47:09;15.90;99.90
2723;DHT22;1369;53.216;10.396;2023-06-14T05:49:35;15.90;99.90
2723;DHT22;1369;53.216;10.396;2023-06-14T05:52:00;15.90;99.90
2723;DHT22;1369;53.216;10.396;2023-06-14T05:54:26;16.00;99.90
2723;DHT22;1369;53.216;10.396;2023-06-14T05:56:51;16.00;99.90
2723;DHT22;1369;53.216;10.396;2023-06-14T05:59:17;16.00;99.90
2723;DHT22;1369;53.216;10.396;2023-06-14T06:01:42;16.10;99.90
2723;DHT22;1369;53.216;10.396;2023-06-14T06:04:08;16.20;99.90
2723;DHT22;1369;53.216;10.396;2023-06-14T06:06:34;16.40;99.90
2723;DHT22;1369;53.216;10.396;2023-06-14T06:09:01;16.50;99.90
2723;DHT22;1369;53.216;10.396;2023-06-14T06:11:27;16.50;99.90
2723;DHT22;1369;53.216;10.396;2023-06-14T06:13:52;16.60;99.90
2723;DHT22;1369;53.216;10.396;2023-06-14T06:16:18;16.60;99.90
2723;DHT22;1369;53.216;10.396;2023-06-14T06:18:43;16.60;99.90
2723;DHT22;1369;53.216;10.396;2023-06-14T06:21:09;16.60;99.90
2723;DHT22;1369;53.216;10.396;2023-06-14T06:23:35;16.60;99.90
2723;DHT22;1369;53.216;10.396;2023-06-14T06:26:00;16.70;99.90
2723;DHT22;1369;53.216;10.396;2023-06-14T06:28:26;16.80;99.90
2723;DHT22;1369;53.216;10.396;2023-06-14T06:30:52;16.80;99.90
2723;DHT22;1369;53.216;10.396;2023-06-14T06:33:18;16.90;99.90
2723;DHT22;1369;53.216;10.396;2023-06-14T06:35:44;17.00;99.90
2723;DHT22;1369;53.216;10.396;2023-06-14T06:38:09;17.10;99.90
2723;DHT22;1369;53.216;10.396;2023-06-14T06:40:35;17.10;99.90
2723;DHT22;1369;53.216;10.396;2023-06-14T06:43:02;17.20;99.90
2723;DHT22;1369;53.216;10.396;2023-06-14T06:45:28;17.30;99.90
2723;DHT22;1369;53.216;10.396;2023-06-14T06:47:54;17.30;99.90
2723;DHT22;1369;53.216;10.396;2023-06-14T06:50:20;17.40;99.90
2723;DHT22;1369;53.216;10.396;2023-06-14T06:52:48;17.50;99.90
2723;DHT22;1369;53.216;10.396;2023-06-14T06:55:14;17.60;99.90
2723;DHT22;1369;53.216;10.396;2023-06-14T06:57:39;17.70;99.90
2723;DHT22;1369;53.216;10.396;2023-06-14T07:00:07;17.70;99.90
2723;DHT22;1369;53.216;10.396;2023-06-14T07:02:34;17.80;99.90
2723;DHT22;1369;53.216;10.396;2023-06-14T07:05:00;18.00;99.90
2723;DHT22;1369;53.216;10.396;2023-06-14T07:07:25;18.70;99.90
2723;DHT22;1369;53.216;10.396;2023-06-14T07:09:51;20.40;99.90
2723;DHT22;1369;53.216;10.396;2023-06-14T07:12:17;23.10;99.90
2723;DHT22;1369;53.216;10.396;2023-06-14T07:14:43;25.60;99.90
2723;DHT22;1369;53.216;10.396;2023-06-14T07:17:09;27.40;99.90
2723;DHT22;1369;53.216;10.396;2023-06-14T07:19:34;29.20;99.90
2723;DHT22;1369;53.216;10.396;2023-06-14T07:22:00;31.00;98.40
2723;DHT22;1369;53.216;10.396;2023-06-14T07:24:26;32.40;94.40
2723;DHT22;1369;53.216;10.396;2023-06-14T07:26:53;33.00;86.90
2723;DHT22;1369;53.216;10.396;2023-06-14T07:29:20;33.00;81.50
2723;DHT22;1369;53.216;10.396;2023-06-14T07:31:46;33.40;76.50
2723;DHT22;1369;53.216;10.396;2023-06-14T07:34:12;33.80;74.70
2723;DHT22;1369;53.216;10.396;2023-06-14T07:36:37;33.70;75.40
2723;DHT22;1369;53.216;10.396;2023-06-14T07:39:03;34.80;74.10
2723;DHT22;1369;53.216;10.396;2023-06-14T07:41:31;34.90;69.00
2723;DHT22;1369;53.216;10.396;2023-06-14T07:43:56;34.70;70.00
2723;DHT22;1369;53.216;10.396;2023-06-14T07:46:22;35.60;67.40
2723;DHT22;1369;53.216;10.396;2023-06-14T07:48:47;36.10;64.40
2723;DHT22;1369;53.216;10.396;2023-06-14T07:51:13;36.40;63.10
2723;DHT22;1369;53.216;10.396;2023-06-14T07:53:39;35.60;61.20
2723;DHT22;1369;53.216;10.396;2023-06-14T07:56:06;35.50;61.70
2723;DHT22;1369;53.216;10.396;2023-06-14T07:58:31;35.70;60.50
2723;DHT22;1369;53.216;10.396;2023-06-14T08:00:57;35.90;58.70
2723;DHT22;1369;53.216;10.396;2023-06-14T08:03:22;35.90;57.30
2723;DHT22;1369;53.216;10.396;2023-06-14T08:05:49;34.60;56.40
2723;DHT22;1369;53.216;10.396;2023-06-14T08:08:14;34.70;59.10
2723;DHT22;1369;53.216;10.396;2023-06-14T08:10:40;35.10;58.40
2723;DHT22;1369;53.216;10.396;2023-06-14T08:13:06;36.00;58.30
2723;DHT22;1369;53.216;10.396;2023-06-14T08:15:31;36.10;55.40
2723;DHT22;1369;53.216;10.396;2023-06-14T08:17:57;35.90;55.50
2723;DHT22;1369;53.216;10.396;2023-06-14T08:20:24;36.30;57.10
2723;DHT22;1369;53.216;10.396;2023-06-14T08:22:50;35.70;55.30
2723;DHT22;1369;53.216;10.396;2023-06-14T08:25:20;36.20;55.90
2723;DHT22;1369;53.216;10.396;2023-06-14T08:27:46;36.10;54.50
2723;DHT22;1369;53.216;10.396;2023-06-14T08:30:12;35.50;54.20
2723;DHT22;1369;53.216;10.396;2023-06-14T08:32:37;35.80;55.30
2723;DHT22;1369;53.216;10.396;2023-06-14T08:35:04;36.10;55.70
2723;DHT22;1369;53.216;10.396;2023-06-14T08:37:31;35.70;53.20
2723;DHT22;1369;53.216;10.396;2023-06-14T08:39:58;34.60;54.40
2723;DHT22;1369;53.216;10.396;2023-06-14T08:42:24;35.00;55.00
2723;DHT22;1369;53.216;10.396;2023-06-14T08:44:50;34.10;54.10
2723;DHT22;1369;53.216;10.396;2023-06-14T08:47:16;34.00;55.60
2723;DHT22;1369;53.216;10.396;2023-06-14T08:49:46;33.30;54.80
2723;DHT22;1369;53.216;10.396;2023-06-14T08:52:13;31.50;58.00
2723;DHT22;1369;53.216;10.396;2023-06-14T08:54:44;31.60;59.50
2723;DHT22;1369;53.216;10.396;2023-06-14T08:57:13;31.50;58.90
2723;DHT22;1369;53.216;10.396;2023-06-14T08:59:46;31.50;57.60
2723;DHT22;1369;53.216;10.396;2023-06-14T09:02:14;31.50;58.20
2723;DHT22;1369;53.216;10.396;2023-06-14T09:04:43;31.30;57.90
2723;DHT22;1369;53.216;10.396;2023-06-14T09:07:10;30.10;58.10
2723;DHT22;1369;53.216;10.396;2023-06-14T09:09:39;29.80;60.30
2723;DHT22;1369;53.216;10.396;2023-06-14T09:12:10;28.80;61.90
2723;DHT22;1369;53.216;10.396;2023-06-14T09:14:36;28.90;62.90
2723;DHT22;1369;53.216;10.396;2023-06-14T09:17:04;28.30;63.20
2723;DHT22;1369;53.216;10.396;2023-06-14T09:19:29;28.00;65.00
2723;DHT22;1369;53.216;10.396;2023-06-14T09:21:55;27.70;65.10
2723;DHT22;1369;53.216;10.396;2023-06-14T09:24:21;27.50;65.30
2723;DHT22;1369;53.216;10.396;2023-06-14T09:26:51;27.50;67.30
2723;DHT22;1369;53.216;10.396;2023-06-14T09:29:17;27.60;67.90
2723;DHT22;1369;53.216;10.396;2023-06-14T09:31:45;27.50;65.20
2723;DHT22;1369;53.216;10.396;2023-06-14T09:34:11;27.50;66.80
2723;DHT22;1369;53.216;10.396;2023-06-14T09:36:39;27.60;68.50
2723;DHT22;1369;53.216;10.396;2023-06-14T09:39:05;27.70;67.40
2723;DHT22;1369;53.216;10.396;2023-06-14T09:41:39;27.10;65.90
2723;DHT22;1369;53.216;10.396;2023-06-14T09:44:06;27.10;68.70
2723;DHT22;1369;53.216;10.396;2023-06-14T09:46:33;26.80;69.40
2723;DHT22;1369;53.216;10.396;2023-06-14T09:48:59;26.90;69.40
2723;DHT22;1369;53.216;10.396;2023-06-14T09:51:25;27.40;71.50
2723;DHT22;1369;53.216;10.396;2023-06-14T09:53:52;27.30;68.70
2723;DHT22;1369;53.216;10.396;2023-06-14T09:56:33;27.40;69.20
2723;DHT22;1369;53.216;10.396;2023-06-14T09:59:04;27.60;68.00
2723;DHT22;1369;53.216;10.396;2023-06-14T10:01:31;27.80;66.20
2723;DHT22;1369;53.216;10.396;2023-06-14T10:04:04;27.90;68.70
2723;DHT22;1369;53.216;10.396;2023-06-14T10:06:31;27.60;65.40
2723;DHT22;1369;53.216;10.396;2023-06-14T10:08:58;27.20;68.00
2723;DHT22;1369;53.216;10.396;2023-06-14T10:11:26;27.20;67.00
2723;DHT22;1369;53.216;10.396;2023-06-14T10:13:52;27.30;70.30
2723;DHT22;1369;53.216;10.396;2023-06-14T10:16:31;27.50;69.20
2723;DHT22;1369;53.216;10.396;2023-06-14T10:19:11;27.50;66.40
2723;DHT22;1369;53.216;10.396;2023-06-14T10:21:58;27.30;67.20
2723;DHT22;1369;53.216;10.396;2023-06-14T10:24:40;27.00;66.90
2723;DHT22;1369;53.216;10.396;2023-06-14T10:27:07;26.80;66.20
2723;DHT22;1369;53.216;10.396;2023-06-14T10:32:21;26.70;68.50
2723;DHT22;1369;53.216;10.396;2023-06-14T10:35:04;26.60;68.20
2723;DHT22;1369;53.216;10.396;2023-06-14T10:37:31;26.50;66.00
2723;DHT22;1369;53.216;10.396;2023-06-14T10:39:56;26.40;66.20
2723;DHT22;1369;53.216;10.396;2023-06-14T10:42:36;26.20;66.20
2723;DHT22;1369;53.216;10.396;2023-06-14T10:45:02;26.00;67.10
2723;DHT22;1369;53.216;10.396;2023-06-14T10:52:27;25.70;70.40
2723;DHT22;1369;53.216;10.396;2023-06-14T10:57:51;26.20;66.40
2723;DHT22;1369;53.216;10.396;2023-06-14T11:00:29;26.80;68.20
2723;DHT22;1369;53.216;10.396;2023-06-14T11:08:18;27.00;66.60
2723;DHT22;1369;53.216;10.396;2023-06-14T11:10:50;27.10;66.00
2723;DHT22;1369;53.216;10.396;2023-06-14T11:13:16;27.30;64.10
2723;DHT22;1369;53.216;10.396;2023-06-14T11:15:47;27.30;65.30
2723;DHT22;1369;53.216;10.396;2023-06-14T11:18:13;27.50;64.20
2723;DHT22;1369;53.216;10.396;2023-06-14T11:20:40;27.70;62.90
2723;DHT22;1369;53.216;10.396;2023-06-14T11:23:05;27.50;64.50
2723;DHT22;1369;53.216;10.396;2023-06-14T11:25:31;27.40;64.90
2723;DHT22;1369;53.216;10.396;2023-06-14T11:27:57;27.20;64.50
2723;DHT22;1369;53.216;10.396;2023-06-14T11:30:23;27.00;65.10
2723;DHT22;1369;53.216;10.396;2023-06-14T11:32:52;26.90;65.00
2723;DHT22;1369;53.216;10.396;2023-06-14T11:35:19;26.50;65.80
2723;DHT22;1369;53.216;10.396;2023-06-14T11:37:46;26.60;65.80
2723;DHT22;1369;53.216;10.396;2023-06-14T11:40:14;26.30;64.60
2723;DHT22;1369;53.216;10.396;2023-06-14T11:42:41;26.40;66.20
2723;DHT22;1369;53.216;10.396;2023-06-14T11:45:10;26.70;65.80
2723;DHT22;1369;53.216;10.396;2023-06-14T11:47:40;27.00;64.90
2723;DHT22;1369;53.216;10.396;2023-06-14T11:50:07;27.30;65.10
2723;DHT22;1369;53.216;10.396;2023-06-14T11:52:34;27.40;63.20
2723;DHT22;1369;53.216;10.396;2023-06-14T11:55:01;27.50;62.50
2723;DHT22;1369;53.216;10.396;2023-06-14T11:57:29;27.60;63.10
2723;DHT22;1369;53.216;10.396;2023-06-14T11:59:55;27.70;62.70
2723;DHT22;1369;53.216;10.396;2023-06-14T12:02:21;27.80;63.10
2723;DHT22;1369;53.216;10.396;2023-06-14T12:04:47;28.00;63.50
2723;DHT22;1369;53.216;10.396;2023-06-14T12:07:17;28.10;62.80
2723;DHT22;1369;53.216;10.396;2023-06-14T12:12:23;28.50;61.40
2723;DHT22;1369;53.216;10.396;2023-06-14T12:14:56;28.40;62.60
2723;DHT22;1369;53.216;10.396;2023-06-14T12:17:22;28.60;61.60
2723;DHT22;1369;53.216;10.396;2023-06-14T12:19:49;28.80;60.20
2723;DHT22;1369;53.216;10.396;2023-06-14T12:22:16;28.40;58.90
2723;DHT22;1369;53.216;10.396;2023-06-14T12:24:45;28.10;59.80
2723;DHT22;1369;53.216;10.396;2023-06-14T12:27:11;27.80;60.10
2723;DHT22;1369;53.216;10.396;2023-06-14T12:29:41;27.40;60.40
2723;DHT22;1369;53.216;10.396;2023-06-14T12:32:09;27.40;62.60
2723;DHT22;1369;53.216;10.396;2023-06-14T12:34:35;27.40;61.30
2723;DHT22;1369;53.216;10.396;2023-06-14T12:37:01;27.10;61.10
2723;DHT22;1369;53.216;10.396;2023-06-14T12:39:26;27.20;62.20
2723;DHT22;1369;53.216;10.396;2023-06-14T12:41:53;27.00;61.70
2723;DHT22;1369;53.216;10.396;2023-06-14T12:44:19;27.10;62.90
2723;DHT22;1369;53.216;10.396;2023-06-14T12:46:45;27.30;61.70
2723;DHT22;1369;53.216;10.396;2023-06-14T12:49:11;27.70;62.00
2723;DHT22;1369;53.216;10.396;2023-06-14T12:51:38;28.00;61.80
2723;DHT22;1369;53.216;10.396;2023-06-14T12:54:04;28.10;60.50
2723;DHT22;1369;53.216;10.396;2023-06-14T12:56:30;28.20;59.40
2723;DHT22;1369;53.216;10.396;2023-06-14T12:58:55;27.80;59.20
2723;DHT22;1369;53.216;10.396;2023-06-14T13:01:21;27.80;60.80
2723;DHT22;1369;53.216;10.396;2023-06-14T13:03:47;27.50;59.90
2723;DHT22;1369;53.216;10.396;2023-06-14T13:06:13;27.30;60.30
2723;DHT22;1369;53.216;10.396;2023-06-14T13:08:39;27.10;61.80
2723;DHT22;1369;53.216;10.396;2023-06-14T13:11:04;27.10;62.50
2723;DHT22;1369;53.216;10.396;2023-06-14T13:13:30;27.00;60.90
2723;DHT22;1369;53.216;10.396;2023-06-14T13:15:56;26.70;60.20
2723;DHT22;1369;53.216;10.396;2023-06-14T13:18:21;26.80;62.90
2723;DHT22;1369;53.216;10.396;2023-06-14T13:20:47;27.20;63.50
2723;DHT22;1369;53.216;10.396;2023-06-14T13:23:13;27.10;60.00
2723;DHT22;1369;53.216;10.396;2023-06-14T13:25:39;27.30;60.30
2723;DHT22;1369;53.216;10.396;2023-06-14T13:28:05;27.30;58.20
2723;DHT22;1369;53.216;10.396;2023-06-14T13:30:31;27.70;59.50
2723;DHT22;1369;53.216;10.396;2023-06-14T13:32:57;28.00;58.80
2723;DHT22;1369;53.216;10.396;2023-06-14T13:35:24;27.90;58.90
2723;DHT22;1369;53.216;10.396;2023-06-14T13:37:50;28.00;59.00
2723;DHT22;1369;53.216;10.396;2023-06-14T13:40:15;27.60;56.70
2723;DHT22;1369;53.216;10.396;2023-06-14T13:42:41;27.40;58.40
2723;DHT22;1369;53.216;10.396;2023-06-14T13:45:08;27.10;58.40
2723;DHT22;1369;53.216;10.396;2023-06-14T13:47:34;27.00;59.70
2723;DHT22;1369;53.216;10.396;2023-06-14T13:49:59;26.70;57.80
2723;DHT22;1369;53.216;10.396;2023-06-14T13:52:25;26.60;58.90
2723;DHT22;1369;53.216;10.396;2023-06-14T13:54:51;26.60;59.00
2723;DHT22;1369;53.216;10.396;2023-06-14T13:57:17;26.70;59.80
2723;DHT22;1369;53.216;10.396;2023-06-14T13:59:43;26.80;59.70
2723;DHT22;1369;53.216;10.396;2023-06-14T14:02:10;27.20;59.00
2723;DHT22;1369;53.216;10.396;2023-06-14T14:04:35;27.60;57.70
2723;DHT22;1369;53.216;10.396;2023-06-14T14:07:02;27.90;58.70
2723;DHT22;1369;53.216;10.396;2023-06-14T14:09:27;27.40;56.20
2723;DHT22;1369;53.216;10.396;2023-06-14T14:11:53;27.40;58.40
2723;DHT22;1369;53.216;10.396;2023-06-14T14:14:18;27.20;59.00
2723;DHT22;1369;53.216;10.396;2023-06-14T14:16:44;26.90;59.00
2723;DHT22;1369;53.216;10.396;2023-06-14T14:19:09;26.70;58.90
2723;DHT22;1369;53.216;10.396;2023-06-14T14:21:35;26.60;59.10
2723;DHT22;1369;53.216;10.396;2023-06-14T14:24:01;26.60;59.60
2723;DHT22;1369;53.216;10.396;2023-06-14T14:26:26;26.40;59.40
2723;DHT22;1369;53.216;10.396;2023-06-14T14:28:52;26.30;59.30
2723;DHT22;1369;53.216;10.396;2023-06-14T14:31:18;26.20;59.90
2723;DHT22;1369;53.216;10.396;2023-06-14T14:33:43;26.00;61.30
2723;DHT22;1369;53.216;10.396;2023-06-14T14:36:09;26.00;62.00
2723;DHT22;1369;53.216;10.396;2023-06-14T14:38:34;25.90;63.20
2723;DHT22;1369;53.216;10.396;2023-06-14T14:41:00;26.00;64.70
2723;DHT22;1369;53.216;10.396;2023-06-14T14:43:26;26.20;66.80
2723;DHT22;1369;53.216;10.396;2023-06-14T14:45:52;26.50;64.20
2723;DHT22;1369;53.216;10.396;2023-06-14T14:48:17;26.60;63.40
2723;DHT22;1369;53.216;10.396;2023-06-14T14:50:43;27.00;64.30
2723;DHT22;1369;53.216;10.396;2023-06-14T14:53:08;27.10;64.80
2723;DHT22;1369;53.216;10.396;2023-06-14T14:55:34;27.10;64.50
2723;DHT22;1369;53.216;10.396;2023-06-14T14:58:02;26.70;62.70
2723;DHT22;1369;53.216;10.396;2023-06-14T15:00:28;26.30;64.80
2723;DHT22;1369;53.216;10.396;2023-06-14T15:02:55;26.30;64.30
2723;DHT22;1369;53.216;10.396;2023-06-14T15:05:21;26.20;63.20
2723;DHT22;1369;53.216;10.396;2023-06-14T15:07:46;26.20;64.80
2723;DHT22;1369;53.216;10.396;2023-06-14T15:10:12;26.60;66.90
2723;DHT22;1369;53.216;10.396;2023-06-14T15:12:37;26.90;63.30
2723;DHT22;1369;53.216;10.396;2023-06-14T15:15:03;27.00;62.90
2723;DHT22;1369;53.216;10.396;2023-06-14T15:17:29;27.20;62.10
2723;DHT22;1369;53.216;10.396;2023-06-14T15:19:55;27.40;61.10
2723;DHT22;1369;53.216;10.396;2023-06-14T15:22:21;27.40;59.90
2723;DHT22;1369;53.216;10.396;2023-06-14T15:24:46;27.40;61.00
2723;DHT22;1369;53.216;10.396;2023-06-14T15:27:12;26.80;61.20
2723;DHT22;1369;53.216;10.396;2023-06-14T15:29:39;26.70;62.30
2723;DHT22;1369;53.216;10.396;2023-06-14T15:32:05;26.40;63.50
2723;DHT22;1369;53.216;10.396;2023-06-14T15:34:32;26.20;64.70
2723;DHT22;1369;53.216;10.396;2023-06-14T15:36:57;25.90;65.30
2723;DHT22;1369;53.216;10.396;2023-06-14T15:39:23;25.70;65.60
2723;DHT22;1369;53.216;10.396;2023-06-14T15:41:49;25.40;66.50
2723;DHT22;1369;53.216;10.396;2023-06-14T15:44:16;25.20;67.70
2723;DHT22;1369;53.216;10.396;2023-06-14T15:46:42;25.10;66.60
2723;DHT22;1369;53.216;10.396;2023-06-14T15:49:09;25.20;67.80
2723;DHT22;1369;53.216;10.396;2023-06-14T15:51:36;25.50;68.80
2723;DHT22;1369;53.216;10.396;2023-06-14T15:54:02;25.50;66.70
2723;DHT22;1369;53.216;10.396;2023-06-14T15:56:27;25.50;68.20
2723;DHT22;1369;53.216;10.396;2023-06-14T15:58:53;25.60;67.10
2723;DHT22;1369;53.216;10.396;2023-06-14T16:01:18;25.80;68.10